Sombreffe, Belgium
Current Conditions -  °F | °C
As of 12:50 PM on Thursday 27 Nov 2014 (Local Time) from EBCI Reporting Station
Light Rain Light Rain  
Wind Chill: 50°   Ceiling: 4600
Heat Index: 50°   Visibility: 4mi
Dew Point: 48°   Wind: 5mph
Humidity: 94%   Direction: 120°ESE
Pressure: 29.71"   Gusts: NA
Location:  50.53°N, 4.6°E
Report Text: EBCI 271150Z 12004KT 090V150 7000 -RA FEW006 SCT030 BKN046 10/09 Q1006 NOSIG
Loading
Personal Weather Stations






























Interactive Weather Map New forecast layout! Learn more

10-Day Weather Forecast

Advertisements
Track Severe Weather on mobile